sensor_id;sensor_type;location;lat;lon;timestamp;P1;durP1;ratioP1;P2;durP2;ratioP2
46116;SDS011;32591;48.102;11.772;2023-03-14T00:00:10;1.15;;;0.93;;
46116;SDS011;32591;48.102;11.772;2023-03-14T00:02:40;1.42;;;0.82;;
46116;SDS011;32591;48.102;11.772;2023-03-14T00:05:08;3.38;;;0.90;;
46116;SDS011;32591;48.102;11.772;2023-03-14T00:07:36;2.15;;;1.15;;
46116;SDS011;32591;48.102;11.772;2023-03-14T00:10:07;1.70;;;1.05;;
46116;SDS011;32591;48.102;11.772;2023-03-14T00:12:37;1.15;;;0.90;;
46116;SDS011;32591;48.102;11.772;2023-03-14T00:15:05;1.33;;;0.85;;
46116;SDS011;32591;48.102;11.772;2023-03-14T00:17:33;2.65;;;0.93;;
46116;SDS011;32591;48.102;11.772;2023-03-14T00:20:01;1.45;;;0.90;;
46116;SDS011;32591;48.102;11.772;2023-03-14T00:22:33;3.88;;;0.95;;
46116;SDS011;32591;48.102;11.772;2023-03-14T00:25:01;1.70;;;0.93;;
46116;SDS011;32591;48.102;11.772;2023-03-14T00:27:29;0.75;;;0.60;;
46116;SDS011;32591;48.102;11.772;2023-03-14T00:29:56;1.58;;;0.90;;
46116;SDS011;32591;48.102;11.772;2023-03-14T00:32:23;1.80;;;0.80;;
46116;SDS011;32591;48.102;11.772;2023-03-14T00:34:50;1.63;;;0.95;;
46116;SDS011;32591;48.102;11.772;2023-03-14T00:37:17;1.80;;;0.93;;
46116;SDS011;32591;48.102;11.772;2023-03-14T00:39:44;1.20;;;0.75;;
46116;SDS011;32591;48.102;11.772;2023-03-14T00:42:11;1.05;;;0.80;;
46116;SDS011;32591;48.102;11.772;2023-03-14T00:44:39;1.02;;;0.85;;
46116;SDS011;32591;48.102;11.772;2023-03-14T00:47:06;2.25;;;0.90;;
46116;SDS011;32591;48.102;11.772;2023-03-14T00:49:33;1.25;;;0.60;;
46116;SDS011;32591;48.102;11.772;2023-03-14T00:52:00;2.63;;;1.00;;
46116;SDS011;32591;48.102;11.772;2023-03-14T00:54:27;2.40;;;0.88;;
46116;SDS011;32591;48.102;11.772;2023-03-14T00:59:21;1.73;;;0.93;;
46116;SDS011;32591;48.102;11.772;2023-03-14T01:01:49;1.33;;;0.80;;
46116;SDS011;32591;48.102;11.772;2023-03-14T01:04:16;2.33;;;0.68;;
46116;SDS011;32591;48.102;11.772;2023-03-14T01:06:43;0.95;;;0.82;;
46116;SDS011;32591;48.102;11.772;2023-03-14T01:09:10;1.00;;;0.70;;
46116;SDS011;32591;48.102;11.772;2023-03-14T01:11:37;0.80;;;0.43;;
46116;SDS011;32591;48.102;11.772;2023-03-14T01:14:04;0.68;;;0.40;;
46116;SDS011;32591;48.102;11.772;2023-03-14T01:16:31;1.88;;;0.30;;
46116;SDS011;32591;48.102;11.772;2023-03-14T01:19:01;0.65;;;0.40;;
46116;SDS011;32591;48.102;11.772;2023-03-14T01:21:29;0.20;;;0.20;;
46116;SDS011;32591;48.102;11.772;2023-03-14T01:24:00;1.25;;;0.52;;
46116;SDS011;32591;48.102;11.772;2023-03-14T01:26:31;0.47;;;0.30;;
46116;SDS011;32591;48.102;11.772;2023-03-14T01:28:59;0.82;;;0.35;;
46116;SDS011;32591;48.102;11.772;2023-03-14T01:31:27;0.25;;;0.25;;
46116;SDS011;32591;48.102;11.772;2023-03-14T01:33:54;1.27;;;0.40;;
46116;SDS011;32591;48.102;11.772;2023-03-14T01:36:22;0.45;;;0.20;;
46116;SDS011;32591;48.102;11.772;2023-03-14T01:38:49;0.68;;;0.40;;
46116;SDS011;32591;48.102;11.772;2023-03-14T01:41:17;0.70;;;0.30;;
46116;SDS011;32591;48.102;11.772;2023-03-14T01:43:46;1.52;;;0.40;;
46116;SDS011;32591;48.102;11.772;2023-03-14T01:46:21;0.75;;;0.40;;
46116;SDS011;32591;48.102;11.772;2023-03-14T01:49:04;3.60;;;0.43;;
46116;SDS011;32591;48.102;11.772;2023-03-14T01:51:42;1.45;;;0.22;;
46116;SDS011;32591;48.102;11.772;2023-03-14T01:54:18;3.70;;;0.52;;
46116;SDS011;32591;48.102;11.772;2023-03-14T01:56:50;0.50;;;0.25;;
46116;SDS011;32591;48.102;11.772;2023-03-14T01:59:23;0.95;;;0.57;;
46116;SDS011;32591;48.102;11.772;2023-03-14T02:01:51;2.05;;;0.50;;
46116;SDS011;32591;48.102;11.772;2023-03-14T02:04:20;1.13;;;0.30;;
46116;SDS011;32591;48.102;11.772;2023-03-14T02:06:51;1.55;;;0.30;;
46116;SDS011;32591;48.102;11.772;2023-03-14T02:09:22;1.17;;;0.40;;
46116;SDS011;32591;48.102;11.772;2023-03-14T02:11:50;0.93;;;0.38;;
46116;SDS011;32591;48.102;11.772;2023-03-14T02:14:21;0.68;;;0.40;;
46116;SDS011;32591;48.102;11.772;2023-03-14T02:16:56;1.65;;;0.30;;
46116;SDS011;32591;48.102;11.772;2023-03-14T02:19:26;0.30;;;0.30;;
46116;SDS011;32591;48.102;11.772;2023-03-14T02:22:07;1.52;;;0.50;;
46116;SDS011;32591;48.102;11.772;2023-03-14T02:24:40;1.20;;;0.43;;
46116;SDS011;32591;48.102;11.772;2023-03-14T02:27:16;2.78;;;0.55;;
46116;SDS011;32591;48.102;11.772;2023-03-14T02:29:45;1.00;;;0.28;;
46116;SDS011;32591;48.102;11.772;2023-03-14T02:32:18;1.48;;;0.60;;
46116;SDS011;32591;48.102;11.772;2023-03-14T02:34:48;0.90;;;0.32;;
46116;SDS011;32591;48.102;11.772;2023-03-14T02:37:19;1.70;;;0.40;;
46116;SDS011;32591;48.102;11.772;2023-03-14T02:39:49;1.42;;;0.40;;
46116;SDS011;32591;48.102;11.772;2023-03-14T02:42:18;0.40;;;0.22;;
46116;SDS011;32591;48.102;11.772;2023-03-14T02:44:52;3.20;;;0.40;;
46116;SDS011;32591;48.102;11.772;2023-03-14T02:47:22;0.57;;;0.30;;
46116;SDS011;32591;48.102;11.772;2023-03-14T02:49:58;0.73;;;0.30;;
46116;SDS011;32591;48.102;11.772;2023-03-14T02:52:28;1.20;;;0.50;;
46116;SDS011;32591;48.102;11.772;2023-03-14T02:54:56;0.50;;;0.13;;
46116;SDS011;32591;48.102;11.772;2023-03-14T02:57:24;0.20;;;0.10;;
46116;SDS011;32591;48.102;11.772;2023-03-14T02:59:51;0.73;;;0.20;;
46116;SDS011;32591;48.102;11.772;2023-03-14T03:04:45;1.98;;;0.20;;
46116;SDS011;32591;48.102;11.772;2023-03-14T03:09:38;0.32;;;0.20;;
46116;SDS011;32591;48.102;11.772;2023-03-14T03:14:34;2.90;;;0.17;;
46116;SDS011;32591;48.102;11.772;2023-03-14T03:17:02;0.38;;;0.25;;
46116;SDS011;32591;48.102;11.772;2023-03-14T03:19:30;0.10;;;0.10;;
46116;SDS011;32591;48.102;11.772;2023-03-14T03:21:57;0.08;;;0.08;;
46116;SDS011;32591;48.102;11.772;2023-03-14T03:24:24;0.85;;;0.10;;
46116;SDS011;32591;48.102;11.772;2023-03-14T03:26:52;0.20;;;0.20;;
46116;SDS011;32591;48.102;11.772;2023-03-14T03:29:19;0.10;;;0.10;;
46116;SDS011;32591;48.102;11.772;2023-03-14T03:31:47;0.17;;;0.13;;
46116;SDS011;32591;48.102;11.772;2023-03-14T03:34:14;0.10;;;0.10;;
46116;SDS011;32591;48.102;11.772;2023-03-14T03:36:42;0.85;;;0.20;;
46116;SDS011;32591;48.102;11.772;2023-03-14T03:41:35;0.13;;;0.13;;
46116;SDS011;32591;48.102;11.772;2023-03-14T03:46:30;0.20;;;0.15;;
46116;SDS011;32591;48.102;11.772;2023-03-14T03:48:59;0.35;;;0.20;;
46116;SDS011;32591;48.102;11.772;2023-03-14T03:51:27;0.20;;;0.10;;
46116;SDS011;32591;48.102;11.772;2023-03-14T03:53:54;0.30;;;0.10;;
46116;SDS011;32591;48.102;11.772;2023-03-14T03:56:22;0.17;;;0.17;;
46116;SDS011;32591;48.102;11.772;2023-03-14T03:58:49;0.60;;;0.43;;
46116;SDS011;32591;48.102;11.772;2023-03-14T04:03:43;0.00;;;0.00;;
46116;SDS011;32591;48.102;11.772;2023-03-14T04:08:39;0.80;;;0.20;;
46116;SDS011;32591;48.102;11.772;2023-03-14T04:11:06;0.10;;;0.10;;
46116;SDS011;32591;48.102;11.772;2023-03-14T04:13:33;0.65;;;0.13;;
46116;SDS011;32591;48.102;11.772;2023-03-14T04:18:27;0.17;;;0.10;;
46116;SDS011;32591;48.102;11.772;2023-03-14T04:20:56;2.38;;;0.20;;
46116;SDS011;32591;48.102;11.772;2023-03-14T04:23:25;0.20;;;0.10;;
46116;SDS011;32591;48.102;11.772;2023-03-14T04:25:52;0.00;;;0.00;;
46116;SDS011;32591;48.102;11.772;2023-03-14T04:28:19;0.20;;;0.20;;
46116;SDS011;32591;48.102;11.772;2023-03-14T04:33:13;0.30;;;0.10;;
46116;SDS011;32591;48.102;11.772;2023-03-14T04:35:42;1.80;;;0.45;;
46116;SDS011;32591;48.102;11.772;2023-03-14T04:38:09;0.22;;;0.10;;
46116;SDS011;32591;48.102;11.772;2023-03-14T04:40:37;0.93;;;0.05;;
46116;SDS011;32591;48.102;11.772;2023-03-14T04:43:05;1.00;;;0.20;;
46116;SDS011;32591;48.102;11.772;2023-03-14T04:45:33;3.22;;;0.45;;
46116;SDS011;32591;48.102;11.772;2023-03-14T04:48:00;0.52;;;0.10;;
46116;SDS011;32591;48.102;11.772;2023-03-14T04:50:27;0.43;;;0.10;;
46116;SDS011;32591;48.102;11.772;2023-03-14T04:55:21;0.82;;;0.35;;
46116;SDS011;32591;48.102;11.772;2023-03-14T05:02:43;0.55;;;0.20;;
46116;SDS011;32591;48.102;11.772;2023-03-14T05:05:10;1.25;;;0.20;;
46116;SDS011;32591;48.102;11.772;2023-03-14T05:10:04;0.80;;;0.80;;
46116;SDS011;32591;48.102;11.772;2023-03-14T05:12:32;0.30;;;0.13;;
46116;SDS011;32591;48.102;11.772;2023-03-14T05:19:53;5.22;;;0.40;;
46116;SDS011;32591;48.102;11.772;2023-03-14T05:22:20;0.20;;;0.20;;
46116;SDS011;32591;48.102;11.772;2023-03-14T05:27:14;0.65;;;0.20;;
46116;SDS011;32591;48.102;11.772;2023-03-14T05:32:09;0.50;;;0.30;;
46116;SDS011;32591;48.102;11.772;2023-03-14T05:34:37;0.20;;;0.20;;
46116;SDS011;32591;48.102;11.772;2023-03-14T05:39:32;1.25;;;0.28;;
46116;SDS011;32591;48.102;11.772;2023-03-14T05:44:25;0.10;;;0.10;;
46116;SDS011;32591;48.102;11.772;2023-03-14T05:49:20;0.20;;;0.17;;
46116;SDS011;32591;48.102;11.772;2023-03-14T05:51:47;0.95;;;0.30;;
46116;SDS011;32591;48.102;11.772;2023-03-14T05:56:41;0.38;;;0.20;;
46116;SDS011;32591;48.102;11.772;2023-03-14T06:01:35;1.02;;;0.22;;
46116;SDS011;32591;48.102;11.772;2023-03-14T06:06:30;1.35;;;0.32;;
46116;SDS011;32591;48.102;11.772;2023-03-14T06:08:57;0.20;;;0.20;;
46116;SDS011;32591;48.102;11.772;2023-03-14T06:11:24;0.47;;;0.20;;
46116;SDS011;32591;48.102;11.772;2023-03-14T06:13:51;0.32;;;0.20;;
46116;SDS011;32591;48.102;11.772;2023-03-14T06:16:18;0.98;;;0.20;;
46116;SDS011;32591;48.102;11.772;2023-03-14T06:18:45;1.35;;;0.20;;
46116;SDS011;32591;48.102;11.772;2023-03-14T06:21:14;1.08;;;0.28;;
46116;SDS011;32591;48.102;11.772;2023-03-14T06:23:42;0.13;;;0.13;;
46116;SDS011;32591;48.102;11.772;2023-03-14T06:26:09;0.22;;;0.20;;
46116;SDS011;32591;48.102;11.772;2023-03-14T06:28:36;2.13;;;0.20;;
46116;SDS011;32591;48.102;11.772;2023-03-14T06:31:04;0.43;;;0.38;;
46116;SDS011;32591;48.102;11.772;2023-03-14T06:33:31;0.60;;;0.38;;
46116;SDS011;32591;48.102;11.772;2023-03-14T06:35:58;0.25;;;0.25;;
46116;SDS011;32591;48.102;11.772;2023-03-14T06:40:53;0.75;;;0.30;;
46116;SDS011;32591;48.102;11.772;2023-03-14T06:43:20;0.45;;;0.30;;
46116;SDS011;32591;48.102;11.772;2023-03-14T06:48:14;0.40;;;0.40;;
46116;SDS011;32591;48.102;11.772;2023-03-14T06:53:08;0.47;;;0.30;;
46116;SDS011;32591;48.102;11.772;2023-03-14T06:58:03;0.35;;;0.30;;
46116;SDS011;32591;48.102;11.772;2023-03-14T07:00:32;0.82;;;0.30;;
46116;SDS011;32591;48.102;11.772;2023-03-14T07:05:25;1.75;;;1.10;;
46116;SDS011;32591;48.102;11.772;2023-03-14T07:10:19;0.95;;;0.70;;
46116;SDS011;32591;48.102;11.772;2023-03-14T07:12:46;0.40;;;0.38;;
46116;SDS011;32591;48.102;11.772;2023-03-14T07:15:14;0.65;;;0.57;;
46116;SDS011;32591;48.102;11.772;2023-03-14T07:17:41;0.45;;;0.40;;
46116;SDS011;32591;48.102;11.772;2023-03-14T07:25:03;3.35;;;1.10;;
46116;SDS011;32591;48.102;11.772;2023-03-14T07:27:31;1.00;;;0.90;;
46116;SDS011;32591;48.102;11.772;2023-03-14T07:32:25;3.63;;;0.90;;
46116;SDS011;32591;48.102;11.772;2023-03-14T07:34:52;1.20;;;0.70;;
46116;SDS011;32591;48.102;11.772;2023-03-14T07:39:46;1.08;;;0.63;;
46116;SDS011;32591;48.102;11.772;2023-03-14T07:44:39;3.08;;;0.85;;
46116;SDS011;32591;48.102;11.772;2023-03-14T07:49:35;0.75;;;0.65;;
46116;SDS011;32591;48.102;11.772;2023-03-14T07:52:01;0.50;;;0.30;;
46116;SDS011;32591;48.102;11.772;2023-03-14T07:56:55;0.73;;;0.40;;
46116;SDS011;32591;48.102;11.772;2023-03-14T07:59:23;0.47;;;0.30;;
46116;SDS011;32591;48.102;11.772;2023-03-14T08:04:17;0.85;;;0.22;;
46116;SDS011;32591;48.102;11.772;2023-03-14T08:11:39;0.13;;;0.10;;
46116;SDS011;32591;48.102;11.772;2023-03-14T08:14:06;0.80;;;0.30;;
46116;SDS011;32591;48.102;11.772;2023-03-14T08:16:33;0.60;;;0.40;;
46116;SDS011;32591;48.102;11.772;2023-03-14T08:21:26;1.20;;;0.20;;
46116;SDS011;32591;48.102;11.772;2023-03-14T08:28:48;2.38;;;0.80;;
46116;SDS011;32591;48.102;11.772;2023-03-14T08:33:42;0.73;;;0.35;;
46116;SDS011;32591;48.102;11.772;2023-03-14T08:36:09;0.47;;;0.30;;
46116;SDS011;32591;48.102;11.772;2023-03-14T08:38:36;1.02;;;0.40;;
46116;SDS011;32591;48.102;11.772;2023-03-14T08:43:32;0.28;;;0.22;;
46116;SDS011;32591;48.102;11.772;2023-03-14T08:48:27;2.03;;;0.38;;
46116;SDS011;32591;48.102;11.772;2023-03-14T08:50:55;0.20;;;0.20;;
46116;SDS011;32591;48.102;11.772;2023-03-14T08:53:23;1.35;;;0.35;;
46116;SDS011;32591;48.102;11.772;2023-03-14T08:55:52;0.68;;;0.20;;
46116;SDS011;32591;48.102;11.772;2023-03-14T08:58:21;0.65;;;0.50;;
46116;SDS011;32591;48.102;11.772;2023-03-14T09:00:48;1.17;;;0.40;;
46116;SDS011;32591;48.102;11.772;2023-03-14T09:03:15;0.88;;;0.30;;
46116;SDS011;32591;48.102;11.772;2023-03-14T09:05:42;0.63;;;0.30;;
46116;SDS011;32591;48.102;11.772;2023-03-14T09:08:09;1.38;;;0.32;;
46116;SDS011;32591;48.102;11.772;2023-03-14T09:13:03;1.10;;;0.38;;
46116;SDS011;32591;48.102;11.772;2023-03-14T09:17:58;0.85;;;0.22;;
46116;SDS011;32591;48.102;11.772;2023-03-14T09:20:25;1.35;;;0.40;;
46116;SDS011;32591;48.102;11.772;2023-03-14T09:22:52;2.92;;;0.30;;
46116;SDS011;32591;48.102;11.772;2023-03-14T09:25:19;1.23;;;0.50;;
46116;SDS011;32591;48.102;11.772;2023-03-14T09:27:47;0.85;;;0.43;;
46116;SDS011;32591;48.102;11.772;2023-03-14T09:30:14;1.67;;;0.65;;
46116;SDS011;32591;48.102;11.772;2023-03-14T09:32:43;1.02;;;0.55;;
46116;SDS011;32591;48.102;11.772;2023-03-14T09:35:10;0.95;;;0.68;;
46116;SDS011;32591;48.102;11.772;2023-03-14T09:37:37;3.97;;;0.85;;
46116;SDS011;32591;48.102;11.772;2023-03-14T09:40:05;4.38;;;1.55;;
46116;SDS011;32591;48.102;11.772;2023-03-14T09:42:37;6.85;;;2.60;;
46116;SDS011;32591;48.102;11.772;2023-03-14T09:45:07;5.15;;;1.88;;
46116;SDS011;32591;48.102;11.772;2023-03-14T09:47:40;2.78;;;1.30;;
46116;SDS011;32591;48.102;11.772;2023-03-14T09:50:11;3.47;;;0.98;;
46116;SDS011;32591;48.102;11.772;2023-03-14T09:52:40;1.10;;;0.60;;
46116;SDS011;32591;48.102;11.772;2023-03-14T09:55:12;0.90;;;0.50;;
46116;SDS011;32591;48.102;11.772;2023-03-14T09:57:42;1.10;;;0.70;;
46116;SDS011;32591;48.102;11.772;2023-03-14T10:00:14;1.23;;;0.68;;
46116;SDS011;32591;48.102;11.772;2023-03-14T10:02:45;0.75;;;0.60;;
46116;SDS011;32591;48.102;11.772;2023-03-14T10:05:19;2.00;;;0.80;;
46116;SDS011;32591;48.102;11.772;2023-03-14T10:07:48;0.77;;;0.50;;
46116;SDS011;32591;48.102;11.772;2023-03-14T10:10:16;1.50;;;0.65;;
46116;SDS011;32591;48.102;11.772;2023-03-14T10:12:46;1.55;;;0.50;;
46116;SDS011;32591;48.102;11.772;2023-03-14T10:15:22;1.25;;;0.50;;
46116;SDS011;32591;48.102;11.772;2023-03-14T10:17:53;1.10;;;0.70;;
46116;SDS011;32591;48.102;11.772;2023-03-14T10:20:32;1.65;;;0.32;;
46116;SDS011;32591;48.102;11.772;2023-03-14T10:23:01;1.05;;;0.60;;
46116;SDS011;32591;48.102;11.772;2023-03-14T10:25:32;0.90;;;0.40;;
46116;SDS011;32591;48.102;11.772;2023-03-14T10:28:01;0.73;;;0.40;;
46116;SDS011;32591;48.102;11.772;2023-03-14T10:30:33;0.60;;;0.40;;
46116;SDS011;32591;48.102;11.772;2023-03-14T10:33:09;1.90;;;0.90;;
46116;SDS011;32591;48.102;11.772;2023-03-14T10:35:40;0.80;;;0.50;;
46116;SDS011;32591;48.102;11.772;2023-03-14T10:38:10;1.40;;;0.68;;
46116;SDS011;32591;48.102;11.772;2023-03-14T10:40:46;2.45;;;0.90;;
46116;SDS011;32591;48.102;11.772;2023-03-14T10:43:16;1.13;;;0.70;;
46116;SDS011;32591;48.102;11.772;2023-03-14T10:45:51;2.00;;;0.70;;
46116;SDS011;32591;48.102;11.772;2023-03-14T10:48:23;4.13;;;0.40;;
46116;SDS011;32591;48.102;11.772;2023-03-14T10:51:01;0.47;;;0.28;;
46116;SDS011;32591;48.102;11.772;2023-03-14T10:53:32;1.08;;;0.35;;
46116;SDS011;32591;48.102;11.772;2023-03-14T10:56:05;1.35;;;0.60;;
46116;SDS011;32591;48.102;11.772;2023-03-14T10:58:40;0.70;;;0.47;;
46116;SDS011;32591;48.102;11.772;2023-03-14T11:01:13;1.92;;;0.63;;
46116;SDS011;32591;48.102;11.772;2023-03-14T11:04:01;5.00;;;0.95;;
46116;SDS011;32591;48.102;11.772;2023-03-14T11:06:42;0.30;;;0.30;;
46116;SDS011;32591;48.102;11.772;2023-03-14T11:09:15;1.95;;;0.40;;
46116;SDS011;32591;48.102;11.772;2023-03-14T11:11:49;1.83;;;0.60;;
46116;SDS011;32591;48.102;11.772;2023-03-14T11:14:18;0.30;;;0.30;;
46116;SDS011;32591;48.102;11.772;2023-03-14T11:16:56;0.65;;;0.40;;
46116;SDS011;32591;48.102;11.772;2023-03-14T11:19:31;1.83;;;0.82;;
46116;SDS011;32591;48.102;11.772;2023-03-14T11:22:14;1.20;;;0.80;;
46116;SDS011;32591;48.102;11.772;2023-03-14T11:24:49;0.28;;;0.28;;
46116;SDS011;32591;48.102;11.772;2023-03-14T11:27:34;0.40;;;0.30;;
46116;SDS011;32591;48.102;11.772;2023-03-14T11:30:14;4.20;;;0.60;;
46116;SDS011;32591;48.102;11.772;2023-03-14T11:32:46;0.32;;;0.30;;
46116;SDS011;32591;48.102;11.772;2023-03-14T11:35:19;2.60;;;1.38;;
46116;SDS011;32591;48.102;11.772;2023-03-14T11:37:53;1.05;;;0.50;;
46116;SDS011;32591;48.102;11.772;2023-03-14T11:40:27;1.35;;;0.30;;
46116;SDS011;32591;48.102;11.772;2023-03-14T11:42:56;0.52;;;0.40;;
46116;SDS011;32591;48.102;11.772;2023-03-14T11:45:35;1.65;;;0.40;;
46116;SDS011;32591;48.102;11.772;2023-03-14T11:48:12;0.95;;;0.40;;
46116;SDS011;32591;48.102;11.772;2023-03-14T11:50:47;1.60;;;0.45;;
46116;SDS011;32591;48.102;11.772;2023-03-14T11:53:21;0.50;;;0.40;;
46116;SDS011;32591;48.102;11.772;2023-03-14T11:55:59;2.13;;;0.30;;
46116;SDS011;32591;48.102;11.772;2023-03-14T11:58:27;0.30;;;0.20;;
46116;SDS011;32591;48.102;11.772;2023-03-14T12:01:00;0.65;;;0.38;;
46116;SDS011;32591;48.102;11.772;2023-03-14T12:03:34;0.52;;;0.20;;
46116;SDS011;32591;48.102;11.772;2023-03-14T12:06:09;0.50;;;0.20;;
46116;SDS011;32591;48.102;11.772;2023-03-14T12:08:47;2.53;;;0.90;;
46116;SDS011;32591;48.102;11.772;2023-03-14T12:11:21;1.63;;;0.77;;
46116;SDS011;32591;48.102;11.772;2023-03-14T12:13:58;2.60;;;1.33;;
46116;SDS011;32591;48.102;11.772;2023-03-14T12:16:30;8.23;;;3.35;;
46116;SDS011;32591;48.102;11.772;2023-03-14T12:19:14;3.80;;;1.40;;
46116;SDS011;32591;48.102;11.772;2023-03-14T12:21:58;1.55;;;0.65;;
46116;SDS011;32591;48.102;11.772;2023-03-14T12:24:50;0.68;;;0.43;;
46116;SDS011;32591;48.102;11.772;2023-03-14T12:30:25;1.27;;;0.60;;
46116;SDS011;32591;48.102;11.772;2023-03-14T12:33:11;2.45;;;0.45;;
46116;SDS011;32591;48.102;11.772;2023-03-14T12:35:57;1.58;;;0.65;;
46116;SDS011;32591;48.102;11.772;2023-03-14T12:38:29;1.80;;;0.93;;
46116;SDS011;32591;48.102;11.772;2023-03-14T12:41:17;0.45;;;0.15;;
46116;SDS011;32591;48.102;11.772;2023-03-14T12:43:48;1.08;;;0.20;;
46116;SDS011;32591;48.102;11.772;2023-03-14T12:46:25;2.30;;;0.47;;
46116;SDS011;32591;48.102;11.772;2023-03-14T12:48:56;0.68;;;0.30;;
46116;SDS011;32591;48.102;11.772;2023-03-14T12:51:34;0.55;;;0.30;;
46116;SDS011;32591;48.102;11.772;2023-03-14T12:57:08;1.15;;;0.35;;
46116;SDS011;32591;48.102;11.772;2023-03-14T12:59:47;0.55;;;0.30;;
46116;SDS011;32591;48.102;11.772;2023-03-14T13:02:22;2.60;;;0.52;;
46116;SDS011;32591;48.102;11.772;2023-03-14T13:04:53;0.85;;;0.32;;
46116;SDS011;32591;48.102;11.772;2023-03-14T13:07:31;0.25;;;0.20;;
46116;SDS011;32591;48.102;11.772;2023-03-14T13:10:29;0.43;;;0.13;;
46116;SDS011;32591;48.102;11.772;2023-03-14T13:13:11;3.20;;;0.20;;
46116;SDS011;32591;48.102;11.772;2023-03-14T13:15:47;0.00;;;0.00;;
46116;SDS011;32591;48.102;11.772;2023-03-14T13:18:16;0.30;;;0.10;;
46116;SDS011;32591;48.102;11.772;2023-03-14T13:20:53;0.10;;;0.08;;
46116;SDS011;32591;48.102;11.772;2023-03-14T13:23:25;0.55;;;0.20;;
46116;SDS011;32591;48.102;11.772;2023-03-14T13:25:54;0.55;;;0.10;;
46116;SDS011;32591;48.102;11.772;2023-03-14T13:28:23;0.10;;;0.10;;
46116;SDS011;32591;48.102;11.772;2023-03-14T13:30:54;0.20;;;0.10;;
46116;SDS011;32591;48.102;11.772;2023-03-14T13:33:26;0.30;;;0.20;;
46116;SDS011;32591;48.102;11.772;2023-03-14T13:35:56;0.13;;;0.10;;
46116;SDS011;32591;48.102;11.772;2023-03-14T13:38:25;0.00;;;0.00;;
46116;SDS011;32591;48.102;11.772;2023-03-14T13:40:55;0.00;;;0.00;;
46116;SDS011;32591;48.102;11.772;2023-03-14T13:43:27;0.30;;;0.20;;
46116;SDS011;32591;48.102;11.772;2023-03-14T13:45:57;0.40;;;0.20;;
46116;SDS011;32591;48.102;11.772;2023-03-14T13:48:30;0.30;;;0.30;;
46116;SDS011;32591;48.102;11.772;2023-03-14T13:51:02;0.10;;;0.10;;
46116;SDS011;32591;48.102;11.772;2023-03-14T13:53:32;0.43;;;0.10;;
46116;SDS011;32591;48.102;11.772;2023-03-14T13:56:09;0.60;;;0.10;;
46116;SDS011;32591;48.102;11.772;2023-03-14T13:58:39;0.10;;;0.03;;
46116;SDS011;32591;48.102;11.772;2023-03-14T14:01:10;0.10;;;0.00;;
46116;SDS011;32591;48.102;11.772;2023-03-14T14:03:41;0.20;;;0.10;;
46116;SDS011;32591;48.102;11.772;2023-03-14T14:06:17;0.13;;;0.10;;
46116;SDS011;32591;48.102;11.772;2023-03-14T14:08:53;0.30;;;0.10;;
46116;SDS011;32591;48.102;11.772;2023-03-14T14:11:22;0.10;;;0.10;;
46116;SDS011;32591;48.102;11.772;2023-03-14T14:14:02;0.20;;;0.10;;
46116;SDS011;32591;48.102;11.772;2023-03-14T14:16:30;0.65;;;0.13;;
46116;SDS011;32591;48.102;11.772;2023-03-14T14:18:57;0.30;;;0.20;;
46116;SDS011;32591;48.102;11.772;2023-03-14T14:21:26;0.15;;;0.03;;
46116;SDS011;32591;48.102;11.772;2023-03-14T14:23:53;0.30;;;0.00;;
46116;SDS011;32591;48.102;11.772;2023-03-14T14:26:20;0.57;;;0.10;;
46116;SDS011;32591;48.102;11.772;2023-03-14T14:28:48;0.52;;;0.50;;
46116;SDS011;32591;48.102;11.772;2023-03-14T14:31:27;0.80;;;0.20;;
46116;SDS011;32591;48.102;11.772;2023-03-14T14:33:55;0.17;;;0.10;;
46116;SDS011;32591;48.102;11.772;2023-03-14T14:36:24;0.43;;;0.15;;
46116;SDS011;32591;48.102;11.772;2023-03-14T14:38:57;0.52;;;0.30;;
46116;SDS011;32591;48.102;11.772;2023-03-14T14:41:27;0.25;;;0.10;;
46116;SDS011;32591;48.102;11.772;2023-03-14T14:43:57;0.57;;;0.35;;
46116;SDS011;32591;48.102;11.772;2023-03-14T14:46:27;0.43;;;0.10;;
46116;SDS011;32591;48.102;11.772;2023-03-14T14:48:57;0.08;;;0.05;;
46116;SDS011;32591;48.102;11.772;2023-03-14T14:51:34;0.50;;;0.25;;
46116;SDS011;32591;48.102;11.772;2023-03-14T14:54:11;0.40;;;0.20;;
46116;SDS011;32591;48.102;11.772;2023-03-14T14:56:45;0.80;;;0.35;;
46116;SDS011;32591;48.102;11.772;2023-03-14T14:59:20;0.38;;;0.20;;
46116;SDS011;32591;48.102;11.772;2023-03-14T15:01:54;0.38;;;0.20;;
46116;SDS011;32591;48.102;11.772;2023-03-14T15:04:22;2.13;;;0.32;;
46116;SDS011;32591;48.102;11.772;2023-03-14T15:06:49;0.32;;;0.10;;
46116;SDS011;32591;48.102;11.772;2023-03-14T15:09:19;0.30;;;0.30;;
46116;SDS011;32591;48.102;11.772;2023-03-14T15:11:46;0.57;;;0.20;;
46116;SDS011;32591;48.102;11.772;2023-03-14T15:14:13;1.45;;;0.20;;
46116;SDS011;32591;48.102;11.772;2023-03-14T15:16:41;0.32;;;0.15;;
46116;SDS011;32591;48.102;11.772;2023-03-14T15:19:19;0.47;;;0.30;;
46116;SDS011;32591;48.102;11.772;2023-03-14T15:21:47;0.45;;;0.20;;
46116;SDS011;32591;48.102;11.772;2023-03-14T15:26:41;0.30;;;0.30;;
46116;SDS011;32591;48.102;11.772;2023-03-14T15:29:09;0.55;;;0.20;;
46116;SDS011;32591;48.102;11.772;2023-03-14T15:31:37;0.77;;;0.30;;
46116;SDS011;32591;48.102;11.772;2023-03-14T15:34:05;0.10;;;0.10;;
46116;SDS011;32591;48.102;11.772;2023-03-14T15:36:33;0.20;;;0.20;;
46116;SDS011;32591;48.102;11.772;2023-03-14T15:39:01;1.25;;;0.20;;
46116;SDS011;32591;48.102;11.772;2023-03-14T15:41:30;0.10;;;0.10;;
46116;SDS011;32591;48.102;11.772;2023-03-14T15:43:58;1.00;;;0.40;;
46116;SDS011;32591;48.102;11.772;2023-03-14T15:46:25;0.15;;;0.10;;
46116;SDS011;32591;48.102;11.772;2023-03-14T15:48:52;0.45;;;0.20;;
46116;SDS011;32591;48.102;11.772;2023-03-14T15:51:19;0.40;;;0.20;;
46116;SDS011;32591;48.102;11.772;2023-03-14T15:53:47;0.65;;;0.30;;
46116;SDS011;32591;48.102;11.772;2023-03-14T15:56:14;0.47;;;0.28;;
46116;SDS011;32591;48.102;11.772;2023-03-14T15:58:44;1.27;;;0.30;;
46116;SDS011;32591;48.102;11.772;2023-03-14T16:01:12;0.20;;;0.20;;
46116;SDS011;32591;48.102;11.772;2023-03-14T16:03:41;0.60;;;0.45;;
46116;SDS011;32591;48.102;11.772;2023-03-14T16:06:10;2.28;;;1.13;;
46116;SDS011;32591;48.102;11.772;2023-03-14T16:08:37;0.77;;;0.68;;
46116;SDS011;32591;48.102;11.772;2023-03-14T16:13:32;0.35;;;0.35;;
